Time;durP1;ratioP1;P1;durP2;ratioP2;P2;SDS_P1;SDS_P2;PMS_P1;PMS_P2;Temp;Humidity;BMP_temperature;BMP_pressure;BME280_temperature;BME280_humidity;BME280_pressure;Samples;Min_cycle;Max_cycle;Signal;HPM_P1;HPM_P2
2023/10/02 00:01:06;;;;;;;13.40;9.00;;;8.40;99.90;;;;;;5088197;28;20021;-82
2023/10/02 00:03:41;;;;;;;13.30;8.60;;;8.40;99.90;;;;;;5093344;28;20024;-83
2023/10/02 00:06:09;;;;;;;16.15;8.25;;;8.50;99.90;;;;;;5092760;28;20032;-80
2023/10/02 00:08:42;;;;;;;15.43;8.88;;;8.50;99.90;;;;;;5093324;28;20049;-85
2023/10/02 00:14:18;;;;;;;11.40;7.75;;;8.50;99.90;;;;;;5090296;28;20057;-77
2023/10/02 00:16:42;;;;;;;17.30;9.18;;;8.50;99.90;;;;;;5079553;28;20033;-84
2023/10/02 00:19:18;;;;;;;17.25;9.00;;;8.50;99.90;;;;;;5079041;28;20051;-77
2023/10/02 00:21:49;;;;;;;26.02;9.30;;;8.60;99.90;;;;;;5090922;28;20020;-84
2023/10/02 00:24:16;;;;;;;12.00;9.02;;;8.60;99.90;;;;;;5090750;28;20027;-83
2023/10/02 00:26:42;;;;;;;17.77;9.25;;;8.60;99.90;;;;;;5092928;28;20069;-77
2023/10/02 00:29:09;;;;;;;15.70;8.35;;;8.70;99.90;;;;;;5083175;28;20021;-84
2023/10/02 00:31:37;;;;;;;11.85;8.45;;;8.70;99.90;;;;;;5075392;28;20020;-84
2023/10/02 00:34:03;;;;;;;13.50;8.75;;;8.70;99.90;;;;;;5092694;28;20101;-77
2023/10/02 00:36:30;;;;;;;12.00;8.48;;;8.80;99.90;;;;;;5090978;28;20012;-77
2023/10/02 00:42:10;;;;;;;12.85;8.45;;;8.80;99.90;;;;;;5092004;28;20042;-78
2023/10/02 00:44:51;;;;;;;14.63;9.50;;;8.80;99.90;;;;;;5078355;28;20028;-77
2023/10/02 00:47:16;;;;;;;24.30;11.13;;;8.80;99.90;;;;;;5081531;28;20033;-77
2023/10/02 00:49:42;;;;;;;20.45;10.50;;;8.70;99.90;;;;;;5075382;28;20013;-79
2023/10/02 00:52:08;;;;;;;17.58;9.85;;;8.70;99.90;;;;;;5092690;28;20027;-84
2023/10/02 00:54:34;;;;;;;19.33;11.07;;;8.70;99.90;;;;;;5091805;28;20474;-84
2023/10/02 00:57:16;;;;;;;20.13;11.48;;;8.70;99.90;;;;;;5091401;28;20224;-79
2023/10/02 00:59:44;;;;;;;19.37;10.80;;;8.70;99.90;;;;;;5091646;28;20016;-79
2023/10/02 01:02:11;;;;;;;21.83;11.65;;;8.70;99.90;;;;;;5090067;28;20093;-79
2023/10/02 01:04:37;;;;;;;20.58;12.30;;;8.70;99.90;;;;;;5092555;28;20025;-79
2023/10/02 01:09:30;;;;;;;20.25;11.13;;;8.70;99.90;;;;;;5072598;28;20090;-83
2023/10/02 01:11:57;;;;;;;15.43;10.38;;;8.70;99.90;;;;;;5083814;28;20040;-83
2023/10/02 01:17:09;;;;;;;20.08;10.73;;;8.80;99.90;;;;;;5084858;28;20040;-83
2023/10/02 01:19:54;;;;;;;20.60;12.02;;;8.80;99.90;;;;;;5086462;28;20020;-78
2023/10/02 01:22:35;;;;;;;18.73;11.68;;;8.80;99.90;;;;;;5074328;28;20020;-78
2023/10/02 01:25:14;;;;;;;17.05;10.65;;;8.80;99.90;;;;;;5086807;28;20024;-79
2023/10/02 01:27:48;;;;;;;22.67;11.43;;;8.80;99.90;;;;;;5086805;28;20024;-78
2023/10/02 01:30:21;;;;;;;20.65;12.20;;;8.80;99.90;;;;;;5083597;28;20013;-81
2023/10/02 01:33:06;;;;;;;27.40;13.70;;;8.90;99.90;;;;;;5077015;28;20102;-78
2023/10/02 01:35:33;;;;;;;24.15;14.18;;;8.90;99.90;;;;;;5083691;28;20394;-82
2023/10/02 01:37:59;;;;;;;23.52;13.68;;;8.90;99.90;;;;;;5084951;28;20021;-78
2023/10/02 01:40:33;;;;;;;27.33;14.80;;;8.90;99.90;;;;;;5083702;28;20031;-82
2023/10/02 01:43:12;;;;;;;29.35;17.30;;;8.90;99.90;;;;;;5082162;28;20029;-83
2023/10/02 01:45:42;;;;;;;36.50;18.80;;;8.90;99.90;;;;;;5071692;28;20029;-83
2023/10/02 01:51:20;;;;;;;30.55;18.40;;;8.90;99.90;;;;;;5072484;28;20085;-82
2023/10/02 01:53:48;;;;;;;35.58;16.38;;;8.90;99.90;;;;;;5072875;28;20378;-76
2023/10/02 01:56:15;;;;;;;36.10;19.98;;;9.00;99.90;;;;;;5071559;28;20027;-83
2023/10/02 01:58:41;;;;;;;31.98;18.08;;;9.00;99.90;;;;;;5077303;28;20111;-76
2023/10/02 02:01:09;;;;;;;36.45;18.10;;;9.00;99.90;;;;;;5073534;28;20028;-77
2023/10/02 02:03:40;;;;;;;33.33;18.52;;;9.00;99.90;;;;;;5070986;28;20060;-77
2023/10/02 02:06:09;;;;;;;27.25;14.60;;;9.00;99.90;;;;;;5072197;28;20248;-83
2023/10/02 02:08:44;;;;;;;26.98;15.18;;;9.00;99.90;;;;;;5074534;28;20043;-83
2023/10/02 02:11:18;;;;;;;24.35;15.10;;;9.00;99.90;;;;;;5067767;28;20024;-84
2023/10/02 02:13:55;;;;;;;27.15;13.98;;;9.10;99.90;;;;;;5076154;28;20027;-77
2023/10/02 02:16:22;;;;;;;23.48;13.38;;;9.00;99.90;;;;;;5076130;28;20017;-83
2023/10/02 02:18:54;;;;;;;24.77;14.10;;;9.00;99.90;;;;;;5076386;28;20547;-76
2023/10/02 02:21:24;;;;;;;20.60;13.07;;;9.00;99.90;;;;;;5074837;28;20023;-83
2023/10/02 02:24:08;;;;;;;31.15;14.25;;;9.00;99.90;;;;;;5085241;28;20016;-77
2023/10/02 02:26:39;;;;;;;22.00;13.23;;;8.90;99.90;;;;;;5075902;28;20042;-83
2023/10/02 02:29:05;;;;;;;20.55;12.70;;;8.90;99.90;;;;;;5072763;28;20032;-83
2023/10/02 02:31:32;;;;;;;23.23;13.75;;;8.80;99.90;;;;;;5079654;28;20093;-83
2023/10/02 02:34:02;;;;;;;19.73;11.90;;;8.80;99.90;;;;;;5086144;28;20506;-83
2023/10/02 02:36:34;;;;;;;20.50;13.25;;;8.80;99.90;;;;;;5088983;28;20024;-78
2023/10/02 02:39:15;;;;;;;19.83;13.65;;;8.80;99.90;;;;;;5078692;28;20498;-77
2023/10/02 02:44:48;;;;;;;22.23;14.55;;;8.70;99.90;;;;;;5064104;28;20043;-84
2023/10/02 02:47:15;;;;;;;27.92;14.10;;;8.70;99.90;;;;;;5073397;28;20414;-83
2023/10/02 02:49:52;;;;;;;20.27;14.35;;;8.70;99.90;;;;;;5093936;28;20102;-83
2023/10/02 02:52:32;;;;;;;22.08;14.10;;;8.70;99.90;;;;;;5093916;28;20069;-83
2023/10/02 02:54:59;;;;;;;27.15;13.20;;;8.70;99.90;;;;;;5093290;28;20016;-83
2023/10/02 02:57:31;;;;;;;20.20;12.70;;;8.70;99.90;;;;;;5092683;28;20171;-77
2023/10/02 03:02:47;;;;;;;20.20;11.63;;;8.70;99.90;;;;;;5068331;28;20093;-83
2023/10/02 03:05:14;;;;;;;21.15;12.02;;;8.70;99.90;;;;;;5072907;28;20040;-84
2023/10/02 03:07:41;;;;;;;18.80;11.88;;;8.70;99.90;;;;;;5075775;28;20470;-83
2023/10/02 03:10:11;;;;;;;21.40;12.45;;;8.70;99.90;;;;;;5076881;28;20052;-84
2023/10/02 03:12:45;;;;;;;23.80;13.02;;;8.70;99.90;;;;;;5079940;28;20028;-77
2023/10/02 03:15:45;;;;;;;25.08;13.35;;;8.70;99.90;;;;;;5074412;28;20028;-77
2023/10/02 03:18:22;;;;;;;24.98;14.88;;;8.70;99.90;;;;;;5073949;28;20481;-77
2023/10/02 03:20:52;;;;;;;22.75;13.07;;;8.70;99.90;;;;;;5075548;28;20021;-77
2023/10/02 03:23:18;;;;;;;25.23;14.13;;;8.70;99.90;;;;;;5076950;28;20013;-83
2023/10/02 03:25:48;;;;;;;23.92;13.70;;;8.80;99.90;;;;;;5074124;28;20374;-82
2023/10/02 03:28:27;;;;;;;25.48;14.93;;;8.80;99.90;;;;;;5074174;28;20016;-77
2023/10/02 03:30:56;;;;;;;21.48;13.70;;;8.80;99.90;;;;;;5075323;28;20023;-82
2023/10/02 03:33:22;;;;;;;23.77;14.05;;;8.90;99.90;;;;;;5066719;28;20059;-82
2023/10/02 03:36:07;;;;;;;23.95;13.88;;;8.90;99.90;;;;;;5075660;28;20020;-82
2023/10/02 03:38:34;;;;;;;21.02;14.15;;;8.90;99.90;;;;;;5074321;28;20498;-83
2023/10/02 03:41:02;;;;;;;24.30;14.00;;;8.90;99.90;;;;;;5064848;28;20460;-77
2023/10/02 03:46:14;;;;;;;21.85;13.90;;;9.00;99.90;;;;;;5093741;28;20043;-84
2023/10/02 03:48:41;;;;;;;21.95;14.65;;;9.00;99.90;;;;;;5091737;28;20070;-77
2023/10/02 03:51:07;;;;;;;18.95;12.63;;;9.00;99.90;;;;;;5092030;28;20048;-78
2023/10/02 03:53:35;;;;;;;21.60;13.25;;;9.10;99.90;;;;;;5082289;28;20044;-78
2023/10/02 03:58:47;;;;;;;17.55;12.15;;;9.10;99.90;;;;;;5078695;28;20035;-79
2023/10/02 04:01:17;;;;;;;16.73;12.30;;;9.10;99.90;;;;;;5082626;28;20027;-83
2023/10/02 04:04:04;;;;;;;19.45;12.75;;;9.10;99.90;;;;;;5077257;28;20028;-83
2023/10/02 04:06:36;;;;;;;17.40;11.45;;;9.10;99.90;;;;;;5075837;28;20082;-77
2023/10/02 04:11:48;;;;;;;19.83;12.80;;;9.20;99.90;;;;;;5075992;28;20410;-84
2023/10/02 04:14:17;;;;;;;19.60;11.02;;;9.20;99.90;;;;;;5082251;28;20745;-83
2023/10/02 04:17:00;;;;;;;16.00;11.07;;;9.20;99.90;;;;;;5078388;28;20024;-77
2023/10/02 04:19:25;;;;;;;14.13;10.30;;;9.20;99.90;;;;;;5075360;28;20009;-78
2023/10/02 04:21:53;;;;;;;14.15;10.93;;;9.20;99.90;;;;;;5079888;28;20028;-76
2023/10/02 04:24:23;;;;;;;17.08;10.10;;;9.20;99.90;;;;;;5075859;28;20016;-83
2023/10/02 04:27:14;;;;;;;17.40;10.40;;;9.20;99.90;;;;;;5088265;28;20028;-83
2023/10/02 04:29:48;;;;;;;16.30;10.02;;;9.20;99.90;;;;;;5087190;28;20438;-82
2023/10/02 04:32:19;;;;;;;15.35;10.43;;;9.20;99.90;;;;;;5085988;28;20055;-83
2023/10/02 04:34:50;;;;;;;15.30;9.75;;;9.20;99.90;;;;;;5088508;28;20393;-81
2023/10/02 04:37:20;;;;;;;18.43;10.40;;;9.20;99.90;;;;;;5085370;28;20025;-82
2023/10/02 04:42:29;;;;;;;21.20;11.88;;;9.20;99.90;;;;;;5087885;28;20021;-77
2023/10/02 04:44:57;;;;;;;18.27;11.70;;;9.20;99.90;;;;;;5071810;28;20020;-82
2023/10/02 04:47:26;;;;;;;17.27;11.30;;;9.20;99.90;;;;;;5074005;28;20505;-82
2023/10/02 04:55:24;;;;;;;20.77;12.63;;;9.30;99.90;;;;;;5078489;28;20162;-77
2023/10/02 04:57:55;;;;;;;23.63;12.63;;;9.30;99.90;;;;;;5066073;28;20021;-82
2023/10/02 05:00:34;;;;;;;23.02;12.98;;;9.30;99.90;;;;;;5070878;28;20513;-82
2023/10/02 05:03:17;;;;;;;17.40;12.18;;;9.30;99.90;;;;;;5082643;28;20028;-83
2023/10/02 05:05:48;;;;;;;;;;;9.30;99.90;;;;;;5070265;28;20128;-77
2023/10/02 05:08:29;;;;;;;16.80;11.15;;;9.40;99.90;;;;;;5077550;28;19904;-77
2023/10/02 05:11:03;;;;;;;23.10;13.57;;;9.40;99.90;;;;;;5074382;28;20036;-82
2023/10/02 05:16:13;;;;;;;22.70;14.18;;;9.50;99.90;;;;;;5076578;28;20089;-77
2023/10/02 05:18:47;;;;;;;19.85;12.10;;;9.50;99.90;;;;;;5072958;28;20425;-78
2023/10/02 05:21:17;;;;;;;19.42;13.45;;;9.50;99.90;;;;;;5075024;28;20016;-77
2023/10/02 05:24:02;;;;;;;27.75;14.32;;;9.50;99.90;;;;;;5083623;28;20153;-77
2023/10/02 05:26:36;;;;;;;25.27;14.32;;;9.50;99.90;;;;;;5070895;28;20041;-77
2023/10/02 05:29:06;;;;;;;28.15;14.82;;;9.60;99.90;;;;;;5083189;28;20108;-77
2023/10/02 05:31:35;;;;;;;22.90;15.52;;;9.60;99.90;;;;;;5078682;28;20023;-83
2023/10/02 05:34:16;;;;;;;28.58;13.63;;;9.70;99.90;;;;;;5075938;28;20103;-84
2023/10/02 05:37:03;;;;;;;27.10;13.90;;;9.70;99.90;;;;;;5071790;28;20017;-79
2023/10/02 05:39:28;;;;;;;22.55;13.25;;;9.80;99.90;;;;;;5075171;28;20075;-83
2023/10/02 05:42:05;;;;;;;22.80;13.65;;;9.80;99.90;;;;;;5077392;28;20036;-83
2023/10/02 05:44:33;;;;;;;23.98;13.27;;;9.90;99.90;;;;;;5079294;28;20017;-83
2023/10/02 05:47:05;;;;;;;17.10;11.07;;;10.00;99.90;;;;;;5080696;28;20040;-83
2023/10/02 05:49:32;;;;;;;22.08;13.02;;;10.00;99.90;;;;;;5080639;28;20115;-83
2023/10/02 05:52:00;;;;;;;23.10;12.30;;;10.10;99.90;;;;;;5080388;28;20016;-83
2023/10/02 05:54:29;;;;;;;19.05;12.55;;;10.20;99.90;;;;;;5075819;28;20030;-83
2023/10/02 05:57:08;;;;;;;19.10;11.93;;;10.20;99.90;;;;;;5079819;28;20032;-78
2023/10/02 05:59:54;;;;;;;22.10;13.30;;;10.30;99.90;;;;;;5088172;28;20037;-83
2023/10/02 06:02:22;;;;;;;26.30;16.42;;;10.40;99.90;;;;;;5077893;28;20476;-83
2023/10/02 06:04:53;;;;;;;26.80;17.10;;;10.50;99.90;;;;;;5084867;28;20021;-84
2023/10/02 06:10:18;;;;;;;44.20;30.20;;;10.60;99.90;;;;;;5081039;28;20507;-78
2023/10/02 06:12:46;;;;;;;27.25;17.58;;;10.70;99.90;;;;;;5077634;28;20481;-84
2023/10/02 06:18:09;;;;;;;20.73;13.27;;;10.90;99.90;;;;;;5057427;28;20032;-78
2023/10/02 06:20:35;;;;;;;28.23;15.13;;;11.10;99.90;;;;;;5080520;28;20051;-78
2023/10/02 06:23:19;;;;;;;23.30;12.82;;;11.30;99.90;;;;;;5079228;28;20023;-78
2023/10/02 06:25:46;;;;;;;20.83;12.70;;;11.50;99.90;;;;;;5070659;28;20090;-83
2023/10/02 06:28:25;;;;;;;22.73;12.65;;;11.70;99.90;;;;;;5078671;28;20462;-83
2023/10/02 06:30:51;;;;;;;24.00;15.63;;;11.80;99.90;;;;;;5082616;28;20020;-83
2023/10/02 06:33:21;;;;;;;24.35;14.88;;;11.90;99.90;;;;;;5082215;28;20143;-83
2023/10/02 06:36:03;;;;;;;21.50;13.50;;;12.00;99.90;;;;;;5080687;28;20115;-78
2023/10/02 06:38:30;;;;;;;17.15;10.68;;;12.10;99.90;;;;;;5078348;28;20048;-83
2023/10/02 06:40:56;;;;;;;20.10;11.35;;;12.10;99.90;;;;;;5073533;28;20028;-84
2023/10/02 06:43:30;;;;;;;21.60;11.52;;;12.10;99.90;;;;;;5074122;28;20024;-83
2023/10/02 06:46:09;;;;;;;20.42;11.57;;;12.20;99.90;;;;;;5078007;28;20081;-84
2023/10/02 06:48:39;;;;;;;19.33;11.38;;;12.20;99.90;;;;;;5074197;28;20070;-78
2023/10/02 06:51:07;;;;;;;20.60;12.38;;;12.30;99.90;;;;;;5073868;28;20021;-78
2023/10/02 06:53:33;;;;;;;16.63;11.52;;;12.40;99.90;;;;;;5072577;28;20023;-82
2023/10/02 06:56:06;;;;;;;16.40;11.07;;;12.50;99.90;;;;;;5074946;28;20482;-77
2023/10/02 06:58:46;;;;;;;15.23;11.65;;;12.50;99.90;;;;;;5073556;28;20470;-82
2023/10/02 07:01:18;;;;;;;17.10;10.95;;;12.60;99.90;;;;;;5074676;28;20024;-77
2023/10/02 07:03:50;;;;;;;20.67;11.15;;;12.70;99.90;;;;;;5060620;28;20170;-77
2023/10/02 07:06:19;;;;;;;16.05;11.38;;;12.80;99.90;;;;;;5073397;28;20138;-83
2023/10/02 07:08:48;;;;;;;18.73;11.07;;;12.90;99.90;;;;;;5081677;28;20021;-82
2023/10/02 07:11:18;;;;;;;19.05;11.25;;;12.90;99.90;;;;;;5078825;28;20023;-83
2023/10/02 07:13:56;;;;;;;18.95;11.38;;;13.00;99.90;;;;;;5074339;28;20474;-82
2023/10/02 07:16:22;;;;;;;19.85;12.23;;;13.10;99.90;;;;;;5076057;28;20111;-78
2023/10/02 07:18:53;;;;;;;20.15;11.50;;;13.20;99.90;;;;;;5082179;28;20032;-77
2023/10/02 07:21:19;;;;;;;16.30;11.07;;;13.20;99.90;;;;;;5072834;28;20489;-83
2023/10/02 07:23:45;;;;;;;15.90;11.32;;;13.30;99.90;;;;;;5074481;28;20466;-78
2023/10/02 07:26:19;;;;;;;23.42;10.95;;;13.40;99.90;;;;;;5079343;28;20036;-78
2023/10/02 07:28:52;;;;;;;18.20;11.27;;;13.40;99.90;;;;;;5074568;28;20028;-83
2023/10/02 07:31:21;;;;;;;18.50;11.32;;;13.50;99.90;;;;;;5060841;28;20395;-78
2023/10/02 07:33:47;;;;;;;18.25;10.93;;;13.50;99.90;;;;;;5074865;28;20371;-83
2023/10/02 07:36:16;;;;;;;15.73;10.93;;;13.60;99.90;;;;;;5074735;28;20028;-83
2023/10/02 07:38:46;;;;;;;17.25;10.57;;;13.70;99.90;;;;;;5072063;28;20049;-83
2023/10/02 07:41:23;;;;;;;19.10;12.07;;;13.70;99.90;;;;;;5073014;28;20023;-83
2023/10/02 07:44:07;;;;;;;24.38;12.32;;;13.80;99.90;;;;;;5081748;28;20612;-83
2023/10/02 07:46:33;;;;;;;18.30;13.02;;;13.90;99.90;;;;;;5074481;28;20032;-78
2023/10/02 07:49:00;;;;;;;22.02;11.57;;;14.00;99.90;;;;;;5074344;28;20024;-78
2023/10/02 07:51:35;;;;;;;25.52;13.73;;;14.10;99.90;;;;;;5074495;28;20024;-77
2023/10/02 07:54:02;;;;;;;28.42;13.57;;;14.10;99.90;;;;;;5061021;28;20031;-78
2023/10/02 07:56:29;;;;;;;22.55;12.98;;;14.10;99.90;;;;;;5073510;28;20025;-83
2023/10/02 07:59:01;;;;;;;21.42;11.15;;;14.20;99.90;;;;;;5074052;28;20027;-77
2023/10/02 08:01:33;;;;;;;19.08;12.75;;;14.40;99.90;;;;;;5076178;28;20350;-78
2023/10/02 08:04:01;;;;;;;17.20;11.20;;;14.60;99.90;;;;;;5072279;28;20027;-83
2023/10/02 08:11:50;;;;;;;25.45;12.13;;;15.10;99.90;;;;;;5082477;28;20043;-78
2023/10/02 08:14:35;;;;;;;23.70;11.70;;;15.20;99.90;;;;;;5073538;28;20025;-78
2023/10/02 08:17:08;;;;;;;24.73;11.55;;;15.30;99.90;;;;;;5082646;28;20036;-78
2023/10/02 08:19:36;;;;;;;20.73;10.18;;;15.40;99.90;;;;;;5079991;28;20039;-78
2023/10/02 08:22:05;;;;;;;20.30;10.75;;;15.50;99.90;;;;;;5091947;28;20107;-78
2023/10/02 08:24:37;;;;;;;21.88;10.25;;;15.50;99.90;;;;;;5092530;28;20466;-83
2023/10/02 08:27:04;;;;;;;18.55;11.05;;;15.70;99.90;;;;;;5091214;28;20044;-83
2023/10/02 08:29:30;;;;;;;21.17;10.25;;;15.90;99.90;;;;;;5091748;28;20016;-83
2023/10/02 08:31:56;;;;;;;18.27;10.20;;;16.00;99.90;;;;;;5091716;28;20020;-83
2023/10/02 08:34:24;;;;;;;23.55;10.93;;;16.10;99.90;;;;;;5090267;28;20019;-78
2023/10/02 08:37:05;;;;;;;19.33;11.23;;;16.30;99.90;;;;;;5089397;28;20452;-78
2023/10/02 08:39:36;;;;;;;23.30;13.30;;;16.40;99.90;;;;;;5080704;28;20040;-83
2023/10/02 08:42:09;;;;;;;24.95;14.65;;;16.50;99.90;;;;;;5089625;28;20423;-77
2023/10/02 08:44:40;;;;;;;18.85;12.23;;;16.80;99.90;;;;;;5092897;28;20009;-83
2023/10/02 08:47:07;;;;;;;21.40;12.20;;;17.00;99.90;;;;;;5102470;28;20035;-78
2023/10/02 08:49:34;;;;;;;24.40;12.43;;;17.10;99.90;;;;;;5104783;28;20020;-84
2023/10/02 08:52:03;;;;;;;25.48;12.57;;;17.30;99.90;;;;;;5091134;28;20012;-84
2023/10/02 08:54:31;;;;;;;20.77;9.80;;;17.40;99.90;;;;;;5092841;28;20051;-83
2023/10/02 08:57:06;;;;;;;21.77;9.55;;;17.50;99.90;;;;;;5092581;28;20103;-78
2023/10/02 08:59:38;;;;;;;15.30;7.72;;;17.60;99.90;;;;;;5092534;28;20024;-84
2023/10/02 09:02:16;;;;;;;15.38;7.53;;;17.50;99.90;;;;;;5090861;28;20020;-83
2023/10/02 09:04:53;;;;;;;21.42;8.02;;;17.60;99.90;;;;;;5091165;28;20039;-79
2023/10/02 09:07:23;;;;;;;15.27;7.95;;;17.50;99.90;;;;;;5082154;28;20059;-78
2023/10/02 09:10:12;;;;;;;12.65;6.80;;;17.60;99.90;;;;;;5074509;28;20051;-78
2023/10/02 09:12:48;;;;;;;13.90;7.72;;;17.80;99.90;;;;;;5071667;28;20025;-83
2023/10/02 09:15:29;;;;;;;13.65;8.07;;;17.90;99.90;;;;;;5060095;28;20086;-78
2023/10/02 09:17:57;;;;;;;11.25;7.38;;;18.10;99.90;;;;;;5090094;28;20012;-83
2023/10/02 09:20:38;;;;;;;16.05;7.35;;;18.30;99.90;;;;;;5075697;28;20021;-78
2023/10/02 09:23:08;;;;;;;18.00;7.20;;;18.20;99.90;;;;;;5075989;28;20032;-78
2023/10/02 09:25:40;;;;;;;13.77;7.38;;;18.30;99.90;;;;;;5075380;28;20063;-83
2023/10/02 09:28:13;;;;;;;12.80;8.15;;;18.30;99.90;;;;;;5062211;28;20039;-83
2023/10/02 09:30:41;;;;;;;14.57;7.03;;;18.30;99.90;;;;;;5081478;28;20474;-83
2023/10/02 09:33:14;;;;;;;12.52;6.50;;;18.30;99.90;;;;;;5077588;28;20032;-83
2023/10/02 09:35:50;;;;;;;11.95;7.00;;;18.30;99.90;;;;;;5080208;28;20363;-78
2023/10/02 09:38:17;;;;;;;19.08;7.72;;;18.20;99.90;;;;;;5076905;28;20016;-83
2023/10/02 09:43:23;;;;;;;13.73;7.47;;;18.40;99.90;;;;;;5076445;28;20082;-82
2023/10/02 09:45:53;;;;;;;13.07;6.60;;;18.60;99.90;;;;;;5094649;28;20032;-82
2023/10/02 09:48:46;;;;;;;10.90;6.00;;;18.70;99.90;;;;;;5088042;28;20062;-82
2023/10/02 09:52:09;;;;;;;13.45;6.10;;;18.80;99.90;;;;;;5092620;28;20085;-82
2023/10/02 09:54:51;;;;;;;9.75;6.20;;;18.90;99.90;;;;;;5073407;28;20027;-77
2023/10/02 09:57:25;;;;;;;15.57;6.35;;;18.90;99.90;;;;;;5075485;28;20025;-77
2023/10/02 09:59:55;;;;;;;15.13;6.45;;;19.00;99.90;;;;;;5078091;28;20111;-83
2023/10/02 10:05:30;;;;;;;12.40;6.80;;;19.50;99.10;;;;;;5081950;28;20512;-83
2023/10/02 10:10:45;;;;;;;13.30;7.05;;;19.40;95.40;;;;;;5070836;28;20040;-79
2023/10/02 10:13:31;;;;;;;9.95;5.00;;;19.20;95.10;;;;;;5073473;28;20027;-78
2023/10/02 10:16:18;;;;;;;6.75;4.88;;;19.20;96.20;;;;;;5067927;28;20479;-79
2023/10/02 10:21:56;;;;;;;12.40;6.13;;;19.20;95.70;;;;;;5073662;28;20600;-78
2023/10/02 10:24:32;;;;;;;11.35;6.28;;;19.30;97.30;;;;;;5067882;28;20062;-78
2023/10/02 10:26:57;;;;;;;9.43;4.57;;;19.40;97.00;;;;;;5073976;28;20056;-78
2023/10/02 10:29:41;;;;;;;12.52;4.38;;;19.50;97.80;;;;;;5073272;28;20031;-78
2023/10/02 10:32:23;;;;;;;10.18;5.53;;;19.70;96.90;;;;;;5069551;28;20436;-77
2023/10/02 10:35:11;;;;;;;;;;;19.70;92.30;;;;;;5077181;28;20509;-77
2023/10/02 10:37:46;;;;;;;8.90;4.85;;;19.80;91.20;;;;;;5073847;28;20457;-77
2023/10/02 10:40:43;;;;;;;8.05;5.28;;;19.70;89.60;;;;;;5072435;28;20502;-77
2023/10/02 10:43:12;;;;;;;8.90;5.50;;;19.60;89.90;;;;;;5074292;28;20146;-77
2023/10/02 10:45:39;;;;;;;11.85;5.47;;;19.50;89.80;;;;;;5074842;28;20110;-77
2023/10/02 10:48:18;;;;;;;7.70;5.38;;;19.70;92.10;;;;;;5083076;28;20119;-77
2023/10/02 10:50:57;;;;;;;7.45;5.07;;;19.70;93.30;;;;;;5087516;28;20047;-77
2023/10/02 10:53:26;;;;;;;8.10;5.22;;;19.70;91.60;;;;;;5085821;28;20024;-77
2023/10/02 10:55:55;;;;;;;12.00;5.60;;;19.70;89.00;;;;;;5074085;28;20055;-79
2023/10/02 10:58:35;;;;;;;18.25;5.88;;;19.80;88.10;;;;;;5071423;28;20038;-77
2023/10/02 11:01:03;;;;;;;15.77;5.80;;;19.80;88.70;;;;;;5066565;28;20048;-84
2023/10/02 11:03:30;;;;;;;15.05;6.00;;;20.10;89.70;;;;;;5072778;28;20032;-84
2023/10/02 11:06:04;;;;;;;11.77;5.65;;;20.10;85.50;;;;;;5076310;28;20205;-83
2023/10/02 11:08:33;;;;;;;13.05;5.75;;;20.30;88.30;;;;;;5072904;28;20021;-82
2023/10/02 11:11:18;;;;;;;9.25;5.82;;;20.30;83.70;;;;;;5076595;28;20056;-83
2023/10/02 11:13:51;;;;;;;9.90;4.85;;;20.40;83.10;;;;;;5073534;28;20027;-83
2023/10/02 11:16:32;;;;;;;11.50;5.15;;;20.40;86.70;;;;;;5074847;28;20072;-84
2023/10/02 11:19:21;;;;;;;8.38;5.05;;;20.40;85.70;;;;;;5076177;28;20426;-85
2023/10/02 11:22:14;;;;;;;8.52;4.97;;;20.40;84.30;;;;;;5077562;28;20048;-84
2023/10/02 11:24:53;;;;;;;8.98;4.97;;;20.50;85.20;;;;;;5069437;28;20028;-83
2023/10/02 11:27:22;;;;;;;9.35;5.28;;;20.40;83.00;;;;;;5074724;28;20490;-87
2023/10/02 11:30:01;;;;;;;14.43;5.00;;;20.30;82.40;;;;;;5083363;28;20027;-85
2023/10/02 11:32:46;;;;;;;9.32;4.75;;;20.30;85.60;;;;;;5085016;28;20088;-86
2023/10/02 11:35:11;;;;;;;7.70;4.53;;;20.30;85.80;;;;;;5077707;28;20474;-85
2023/10/02 11:37:45;;;;;;;8.00;4.00;;;20.20;86.90;;;;;;5079122;28;20016;-84
2023/10/02 11:40:11;;;;;;;6.10;3.90;;;20.20;86.60;;;;;;5083842;28;20049;-78
2023/10/02 11:42:37;;;;;;;9.35;4.72;;;20.10;85.40;;;;;;5073896;28;20024;-78
2023/10/02 11:45:03;;;;;;;9.80;4.82;;;19.90;84.60;;;;;;5072890;28;20033;-80
2023/10/02 11:47:29;;;;;;;9.88;4.55;;;19.80;87.00;;;;;;5083653;28;20028;-79
2023/10/02 11:49:57;;;;;;;8.13;4.05;;;19.80;88.60;;;;;;5086251;28;20089;-79
2023/10/02 11:52:26;;;;;;;8.48;3.08;;;19.90;89.40;;;;;;5083018;28;20017;-79
2023/10/02 11:54:52;;;;;;;5.32;2.92;;;19.80;86.00;;;;;;5072933;28;20017;-80
2023/10/02 11:57:18;;;;;;;3.67;2.50;;;19.90;86.90;;;;;;5069343;28;20414;-78
2023/10/02 11:59:47;;;;;;;4.22;2.50;;;20.10;92.00;;;;;;5067519;28;20048;-80
2023/10/02 12:02:16;;;;;;;4.10;2.35;;;20.20;87.00;;;;;;5074915;28;20567;-79
2023/10/02 12:04:43;;;;;;;3.88;2.60;;;20.40;85.80;;;;;;5078226;28;20027;-78
2023/10/02 12:07:15;;;;;;;6.32;3.75;;;20.40;82.10;;;;;;5069866;28;20494;-79
2023/10/02 12:09:41;;;;;;;;;;;20.40;85.40;;;;;;5075327;28;20046;-79
2023/10/02 12:12:07;;;;;;;5.60;3.08;;;20.50;87.50;;;;;;5084748;28;19959;-78
2023/10/02 12:14:32;;;;;;;5.90;2.80;;;20.40;83.90;;;;;;5074093;28;20044;-78
2023/10/02 12:16:58;;;;;;;4.80;2.80;;;20.50;84.70;;;;;;5072547;28;20020;-79
2023/10/02 12:19:28;;;;;;;4.68;2.70;;;20.60;85.80;;;;;;5076118;28;20025;-79
2023/10/02 12:21:55;;;;;;;3.00;2.10;;;20.50;83.30;;;;;;5076651;28;20020;-84
2023/10/02 12:24:21;;;;;;;4.60;2.22;;;20.60;82.90;;;;;;5079730;28;20025;-84
2023/10/02 12:26:49;;;;;;;4.88;2.17;;;20.60;83.00;;;;;;5084107;28;20047;-84
2023/10/02 12:29:15;;;;;;;3.35;2.00;;;20.60;83.00;;;;;;5091007;28;20031;-84
2023/10/02 12:31:42;;;;;;;4.32;2.83;;;20.70;84.50;;;;;;5091901;28;20048;-84
2023/10/02 12:34:08;;;;;;;4.20;2.55;;;20.70;81.90;;;;;;5084063;28;20025;-79
2023/10/02 12:36:33;;;;;;;3.72;2.38;;;20.70;83.50;;;;;;5070896;28;20023;-78
2023/10/02 12:38:59;;;;;;;6.18;2.80;;;20.70;83.90;;;;;;5071863;28;20051;-78
2023/10/02 12:41:32;;;;;;;7.45;3.25;;;20.50;82.30;;;;;;5090223;28;20354;-78
2023/10/02 12:43:58;;;;;;;;;;;20.50;82.10;;;;;;5084219;28;20021;-78
2023/10/02 12:46:29;;;;;;;5.45;2.90;;;20.60;85.90;;;;;;5082020;28;19959;-78
2023/10/02 12:48:57;;;;;;;7.93;3.58;;;20.80;86.70;;;;;;5084690;28;20020;-79
2023/10/02 12:51:27;;;;;;;5.90;2.92;;;20.80;87.50;;;;;;5071832;28;20039;-78
2023/10/02 12:53:53;;;;;;;5.65;3.20;;;20.90;88.90;;;;;;5078277;28;20032;-85
2023/10/02 12:56:21;;;;;;;5.32;3.33;;;21.00;89.40;;;;;;5088428;28;20024;-84
2023/10/02 12:58:51;;;;;;;8.65;3.20;;;21.00;89.20;;;;;;5088724;28;20504;-85
2023/10/02 13:01:18;;;;;;;9.88;3.80;;;21.10;86.20;;;;;;5080305;28;20085;-85
2023/10/02 13:03:44;;;;;;;6.30;3.28;;;21.20;85.90;;;;;;5067840;28;20032;-84
2023/10/02 13:06:12;;;;;;;5.47;3.60;;;21.20;85.40;;;;;;5082926;28;20066;-86
2023/10/02 13:08:42;;;;;;;5.95;3.65;;;21.30;85.90;;;;;;5072921;28;20070;-87
2023/10/02 13:11:12;;;;;;;5.78;3.90;;;21.30;84.40;;;;;;5084912;28;20016;-79
2023/10/02 13:13:44;;;;;;;8.23;3.92;;;21.30;84.90;;;;;;5070864;28;20028;-78
2023/10/02 13:16:11;;;;;;;5.45;3.65;;;21.40;87.80;;;;;;5080087;28;20062;-82
2023/10/02 13:18:40;;;;;;;7.32;3.75;;;21.40;87.30;;;;;;5080787;28;20028;-82
2023/10/02 13:21:08;;;;;;;7.90;4.03;;;21.50;85.90;;;;;;5080551;28;20445;-76
2023/10/02 13:23:34;;;;;;;5.65;3.60;;;21.50;87.90;;;;;;5081073;28;20023;-81
2023/10/02 13:25:59;;;;;;;7.82;3.78;;;21.30;85.50;;;;;;5080021;28;20163;-82
2023/10/02 13:28:25;;;;;;;6.03;3.47;;;21.10;85.70;;;;;;5080645;28;20078;-76
2023/10/02 13:30:52;;;;;;;7.35;3.80;;;21.00;89.30;;;;;;5079654;28;20016;-76
2023/10/02 13:33:20;;;;;;;6.05;3.25;;;20.90;90.40;;;;;;5077841;28;20024;-82
2023/10/02 13:35:54;;;;;;;8.40;3.85;;;20.80;91.40;;;;;;5068749;28;20029;-82
2023/10/02 13:38:19;;;;;;;8.38;3.33;;;20.60;93.10;;;;;;5076463;28;20056;-83
2023/10/02 13:40:46;;;;;;;4.93;3.35;;;20.50;96.00;;;;;;5070406;28;20497;-83
2023/10/02 13:43:11;;;;;;;5.72;3.75;;;20.40;97.60;;;;;;5068285;28;20691;-82
2023/10/02 13:45:37;;;;;;;5.72;3.38;;;20.30;98.40;;;;;;5082219;28;20095;-77
2023/10/02 13:48:06;;;;;;;5.95;3.78;;;20.20;99.90;;;;;;5087552;28;20028;-82
2023/10/02 13:50:35;;;;;;;7.22;3.92;;;20.20;99.90;;;;;;5076578;28;20394;-77
2023/10/02 13:53:01;;;;;;;7.88;3.83;;;20.20;99.90;;;;;;5078609;28;20351;-77
2023/10/02 13:55:27;;;;;;;7.38;3.30;;;20.20;99.90;;;;;;5076353;28;20049;-77
2023/10/02 13:57:55;;;;;;;5.32;3.53;;;20.20;99.90;;;;;;5079208;28;20484;-77
2023/10/02 14:00:21;;;;;;;6.38;3.92;;;20.20;99.90;;;;;;5075365;28;20013;-83
2023/10/02 14:02:54;;;;;;;6.85;3.97;;;20.10;99.90;;;;;;5082215;28;20031;-83